Airfield :







YOU CAN JOIN US ON...

 
LOGIN :

Register | Disclaimer

   EN    FR    IT 

 









Legend :    VFR   Marginal VFR   IFR   Intensive IFR   Very Intensive IFR
Visi :
Ceiling :
>= 8 km
>= 3000ft
5 to 8 km
1000 to 3000 ft
1500m to 5 km
500 to 1000 ft
800 to 1500m
200 to 500 ft
< 800m
< 200 ft
Symbols :   Thunderstorms  Fog  Heavy snow  Heavy precipitations  Wind > 20 kt






- Airport Elevation : 124 ft
- IATA code : YGV


CYGV - Havre St Pierre

CURRENT METAR :
  • 141700Z AUTO 10008KT 9SM OVC050 10/08 A3009 RMK SLP191

EXPIRED METARs :
  • 141600Z AUTO 12005KT 9SM FEW016 OVC050 11/08 A3009 RMK SLP192
  • 141529Z AUTO 14005KT 080V160 9SM SCT014 OVC050 11/08 A3009 RMK SLP193
  • 141500Z AUTO 11006KT 9SM BKN017 11/08 A3009 RMK SLP193

TAF TAF CYGV
Valid from the 14 at 14:00 until the 15 at 02:00 UTC


141340Z 1414/1502 VRB03KT P6SM SCT012 BKN070
TEMPO 1414/1420 OVC012
BECMG 1414/1416 12008KT
FM142200 10010KT P6SM SCT012 OVC040
TEMPO 1422/1502 OVC009 RMK FCST BASED ON AUTO OBS. NXT FCST BY 142000Z



MET'MAP, your aeronautical weather chart ! - Copyright ORBIFLY December 2007 - Disclaimer

ORBIFLY MET'MAP TEAM :

Programming & Development : Alexandra Zaïnal
Concept & Development : Baudouin d'Aumeries
Co-Development & Prog : Marc-Olivier Méhu
Technical & hardware support : Manuel Goepfert

Contact : metmap@orbifly.com




SOURCES & CREDITS :

   NOAA